createdAt,value
2023-06-21T00:00:54.536Z,17.27
2023-06-21T00:03:26.574Z,17.98
2023-06-21T00:05:54.816Z,17.88
2023-06-21T00:08:23.798Z,18.38
2023-06-21T00:10:52.170Z,18.17
2023-06-21T00:13:21.886Z,17.67
2023-06-21T00:15:51.021Z,17.45
2023-06-21T00:18:23.506Z,18.75
2023-06-21T00:20:51.650Z,17.85
2023-06-21T00:23:21.247Z,18.27
2023-06-21T00:25:50.473Z,16.15
2023-06-21T00:28:22.484Z,17.42
2023-06-21T00:30:52.300Z,16.45
2023-06-21T00:33:22.549Z,16.90
2023-06-21T00:35:50.651Z,17.40
2023-06-21T00:38:19.461Z,16.10
2023-06-21T00:40:51.547Z,16.23
2023-06-21T00:43:20.415Z,16.40
2023-06-21T00:45:50.491Z,16.27
2023-06-21T00:48:20.131Z,16.13
2023-06-21T00:50:49.489Z,15.35
2023-06-21T00:53:18.193Z,15.80
2023-06-21T00:55:47.019Z,16.20
2023-06-21T00:58:15.878Z,16.55
2023-06-21T01:00:45.547Z,16.58
2023-06-21T01:03:14.303Z,15.90
2023-06-21T01:05:53.296Z,15.00
2023-06-21T01:08:33.555Z,16.50
2023-06-21T01:11:13.142Z,15.65
2023-06-21T01:13:56.530Z,15.82
2023-06-21T01:16:28.550Z,14.88
2023-06-21T01:18:57.418Z,15.30
2023-06-21T01:21:28.034Z,15.63
2023-06-21T01:24:15.575Z,15.40
2023-06-21T01:27:02.642Z,14.70
2023-06-21T01:29:33.968Z,15.25
2023-06-21T01:32:04.605Z,15.20
2023-06-21T01:34:35.545Z,15.15
2023-06-21T01:37:06.377Z,16.27
2023-06-21T01:39:35.581Z,15.23
2023-06-21T01:42:05.904Z,16.33
2023-06-21T01:44:38.253Z,15.75
2023-06-21T01:47:08.036Z,16.13
2023-06-21T01:49:40.489Z,16.55
2023-06-21T01:52:10.067Z,16.20
2023-06-21T01:54:43.536Z,17.23
2023-06-21T01:57:12.631Z,17.42
2023-06-21T01:59:43.518Z,16.95
2023-06-21T02:02:14.613Z,17.88
2023-06-21T02:04:46.039Z,18.23
2023-06-21T02:07:15.685Z,17.88
2023-06-21T02:09:46.610Z,18.02
2023-06-21T02:12:14.893Z,17.42
2023-06-21T02:14:48.607Z,17.27
2023-06-21T02:17:17.593Z,17.75
2023-06-21T02:19:45.846Z,18.77
2023-06-21T02:22:16.915Z,18.83
2023-06-21T02:24:46.112Z,17.83
2023-06-21T02:27:18.627Z,17.88
2023-06-21T02:29:48.438Z,18.98
2023-06-21T02:32:17.387Z,18.48
2023-06-21T02:34:46.543Z,18.13
2023-06-21T02:37:15.287Z,19.60
2023-06-21T02:39:45.310Z,18.88
2023-06-21T02:42:14.530Z,19.52
2023-06-21T02:44:46.432Z,19.13
2023-06-21T02:47:15.924Z,18.63
2023-06-21T02:49:45.445Z,18.80
2023-06-21T02:52:15.613Z,18.27
2023-06-21T02:54:44.535Z,18.77
2023-06-21T02:57:12.718Z,18.15
2023-06-21T02:59:41.549Z,17.88
2023-06-21T03:02:10.504Z,18.90
2023-06-21T03:04:41.652Z,18.38
2023-06-21T03:07:09.833Z,18.67
2023-06-21T03:09:38.578Z,18.70
2023-06-21T03:12:10.655Z,19.13
2023-06-21T03:14:40.590Z,17.90
2023-06-21T03:17:11.597Z,18.20
2023-06-21T03:19:42.837Z,17.75
2023-06-21T03:22:16.721Z,17.42
2023-06-21T03:24:45.039Z,17.27
2023-06-21T03:27:14.620Z,17.42
2023-06-21T03:29:46.166Z,17.17
2023-06-21T03:32:17.191Z,16.33
2023-06-21T03:34:47.665Z,16.50
2023-06-21T03:37:16.150Z,16.33
2023-06-21T03:39:47.651Z,15.32
2023-06-21T03:42:15.941Z,15.23
2023-06-21T03:44:44.715Z,16.23
2023-06-21T03:47:13.602Z,15.38
2023-06-21T03:49:43.608Z,16.75
2023-06-21T03:52:14.684Z,16.40
2023-06-21T03:54:43.408Z,16.17
2023-06-21T03:57:14.101Z,16.27
2023-06-21T03:59:44.646Z,16.02
2023-06-21T04:02:13.653Z,16.45
2023-06-21T04:04:42.144Z,15.73
2023-06-21T04:07:10.333Z,14.27
2023-06-21T04:09:43.857Z,13.98
2023-06-21T04:12:12.261Z,13.73
2023-06-21T04:14:40.598Z,14.07
2023-06-21T04:17:10.476Z,14.43
2023-06-21T04:19:39.621Z,14.75
2023-06-21T04:22:10.065Z,13.73
2023-06-21T04:24:39.692Z,14.20
2023-06-21T04:27:13.311Z,14.13
2023-06-21T04:29:42.681Z,14.73
2023-06-21T04:32:11.681Z,14.27
2023-06-21T04:34:39.978Z,13.70
2023-06-21T04:37:08.671Z,14.15
2023-06-21T04:39:37.639Z,14.88
2023-06-21T04:42:10.030Z,14.27
2023-06-21T04:44:38.251Z,15.40
2023-06-21T04:47:07.126Z,14.65
2023-06-21T04:49:36.413Z,15.02
2023-06-21T04:52:04.947Z,15.25
2023-06-21T04:54:36.249Z,15.30
2023-06-21T04:57:04.909Z,14.60
2023-06-21T04:59:35.124Z,14.80
2023-06-21T05:02:03.379Z,14.93
2023-06-21T05:04:32.457Z,18.55
2023-06-21T05:07:06.625Z,16.70
2023-06-21T05:09:34.880Z,16.10
2023-06-21T05:12:03.154Z,15.18
2023-06-21T05:14:31.411Z,15.65
2023-06-21T05:17:00.897Z,14.77
2023-06-21T05:19:30.313Z,15.00
2023-06-21T05:21:58.497Z,14.95
2023-06-21T05:24:30.609Z,14.30
2023-06-21T05:26:58.849Z,14.52
2023-06-21T05:29:26.969Z,14.38
2023-06-21T05:31:58.257Z,13.40
2023-06-21T05:34:29.735Z,13.25
2023-06-21T05:36:57.954Z,13.35
2023-06-21T05:39:26.309Z,13.30
2023-06-21T05:41:54.575Z,14.13
2023-06-21T05:44:22.812Z,13.57
2023-06-21T05:46:50.948Z,12.73
2023-06-21T05:49:19.536Z,12.98
2023-06-21T05:51:49.344Z,13.43
2023-06-21T05:54:17.935Z,15.27
2023-06-21T05:56:46.268Z,14.10
2023-06-21T05:59:14.632Z,13.55
2023-06-21T06:01:42.866Z,14.07
2023-06-21T06:04:14.339Z,12.38
2023-06-21T06:06:43.875Z,12.65
2023-06-21T06:09:13.732Z,12.55
2023-06-21T06:11:42.746Z,12.50
2023-06-21T06:14:11.842Z,11.65
2023-06-21T06:16:42.476Z,12.57
2023-06-21T06:19:10.898Z,11.80
2023-06-21T06:21:39.007Z,12.35
2023-06-21T06:24:07.305Z,12.35
2023-06-21T06:26:36.914Z,11.50
2023-06-21T06:29:05.068Z,11.73
2023-06-21T06:31:33.280Z,11.05
2023-06-21T06:34:01.743Z,11.02
2023-06-21T06:36:30.277Z,11.68
2023-06-21T06:38:58.508Z,10.48
2023-06-21T06:41:27.323Z,10.90
2023-06-21T06:43:56.861Z,11.20
2023-06-21T06:46:25.110Z,10.38
2023-06-21T06:48:53.340Z,10.80
2023-06-21T06:51:21.634Z,10.73
2023-06-21T06:53:50.144Z,10.63
2023-06-21T06:56:18.366Z,10.70
2023-06-21T06:58:46.713Z,10.90
2023-06-21T07:01:16.375Z,10.40
2023-06-21T07:03:44.724Z,10.23
2023-06-21T07:06:13.105Z,10.32
2023-06-21T07:08:46.389Z,9.60
2023-06-21T07:11:15.017Z,10.13
2023-06-21T07:13:43.711Z,10.55
2023-06-21T07:16:11.995Z,10.90
2023-06-21T07:18:41.546Z,10.15
2023-06-21T07:21:09.688Z,9.30
2023-06-21T07:23:41.830Z,9.13
2023-06-21T07:26:11.465Z,9.50
2023-06-21T07:28:39.881Z,8.95
2023-06-21T07:31:08.150Z,9.25
2023-06-21T07:33:36.447Z,9.52
2023-06-21T07:36:07.333Z,8.48
2023-06-21T07:38:39.370Z,9.02
2023-06-21T07:41:07.589Z,9.00
2023-06-21T07:43:36.060Z,9.23
2023-06-21T07:46:15.263Z,10.32
2023-06-21T07:48:44.607Z,9.55
2023-06-21T07:51:14.301Z,9.40
2023-06-21T07:53:45.559Z,10.15
2023-06-21T07:56:15.934Z,8.27
2023-06-21T07:58:44.871Z,8.30
2023-06-21T08:01:13.565Z,8.48
2023-06-21T08:03:42.394Z,8.80
2023-06-21T08:06:14.791Z,8.27
2023-06-21T08:08:43.056Z,8.65
2023-06-21T08:11:11.845Z,8.23
2023-06-21T08:13:40.030Z,8.40
2023-06-21T08:16:08.718Z,8.68
2023-06-21T08:18:37.671Z,8.48
2023-06-21T08:21:06.875Z,8.27
2023-06-21T08:23:39.732Z,8.63
2023-06-21T08:26:08.044Z,10.00
2023-06-21T08:28:36.248Z,9.65
2023-06-21T08:31:04.682Z,8.48
2023-06-21T08:33:32.945Z,8.63
2023-06-21T08:36:02.366Z,8.60
2023-06-21T08:38:30.605Z,8.50
2023-06-21T08:41:05.505Z,8.50
2023-06-21T08:43:34.626Z,8.63
2023-06-21T08:46:08.895Z,7.32
2023-06-21T08:48:39.081Z,8.00
2023-06-21T08:51:07.933Z,8.23
2023-06-21T08:53:41.630Z,9.05
2023-06-21T08:56:15.889Z,8.23
2023-06-21T08:58:51.871Z,7.78
2023-06-21T09:01:24.361Z,7.60
2023-06-21T09:04:00.197Z,7.72
2023-06-21T09:06:29.635Z,7.78
2023-06-21T09:09:02.789Z,7.63
2023-06-21T09:11:33.090Z,7.85
2023-06-21T09:14:01.951Z,7.82
2023-06-21T09:16:30.312Z,7.43
2023-06-21T09:18:59.298Z,7.75
2023-06-21T09:21:28.320Z,7.32
2023-06-21T09:23:57.620Z,7.65
2023-06-21T09:26:25.836Z,7.70
2023-06-21T09:28:57.835Z,8.25
2023-06-21T09:31:26.035Z,7.20
2023-06-21T09:33:58.331Z,7.88
2023-06-21T09:36:27.478Z,7.78
2023-06-21T09:39:08.524Z,10.57
2023-06-21T09:41:37.054Z,12.55
2023-06-21T09:44:07.900Z,8.20
2023-06-21T09:46:36.855Z,8.18
2023-06-21T09:49:12.860Z,8.68
2023-06-21T09:51:45.196Z,7.90
2023-06-21T09:54:13.775Z,8.43
2023-06-21T09:56:42.724Z,7.82
2023-06-21T09:59:21.883Z,8.95
2023-06-21T10:01:51.214Z,8.55
2023-06-21T10:04:20.092Z,8.52
2023-06-21T10:06:52.925Z,8.10
2023-06-21T10:09:21.295Z,8.27
2023-06-21T10:11:50.607Z,8.15
2023-06-21T10:14:26.542Z,8.38
2023-06-21T10:16:56.576Z,8.48
2023-06-21T10:19:27.372Z,9.18
2023-06-21T10:22:02.999Z,8.13
2023-06-21T10:24:36.936Z,7.50
2023-06-21T10:27:07.716Z,7.53
2023-06-21T10:29:38.540Z,7.57
2023-06-21T10:32:10.706Z,8.63
2023-06-21T10:34:53.575Z,7.88
2023-06-21T10:37:31.647Z,7.95
2023-06-21T10:40:11.395Z,8.20
2023-06-21T10:42:43.519Z,7.28
2023-06-21T10:45:14.106Z,7.85
2023-06-21T10:47:43.332Z,8.23
2023-06-21T10:50:13.235Z,8.25
2023-06-21T10:52:42.246Z,8.60
2023-06-21T10:55:15.568Z,13.48
2023-06-21T10:57:45.026Z,8.57
2023-06-21T11:00:20.106Z,8.68
2023-06-21T11:02:48.857Z,8.43
2023-06-21T11:05:19.176Z,8.07
2023-06-21T11:07:50.454Z,8.20
2023-06-21T11:10:18.860Z,7.82
2023-06-21T11:12:58.319Z,8.50
2023-06-21T11:15:28.505Z,8.10
2023-06-21T11:17:58.989Z,8.07
2023-06-21T11:20:27.747Z,8.55
2023-06-21T11:22:58.124Z,7.95
2023-06-21T11:25:26.703Z,7.97
2023-06-21T11:28:23.529Z,9.57
2023-06-21T11:31:09.940Z,8.80
2023-06-21T11:33:52.886Z,9.23
2023-06-21T11:36:23.306Z,9.77
2023-06-21T11:38:59.977Z,8.88
2023-06-21T11:42:00.491Z,9.40
2023-06-21T11:44:31.168Z,9.82
2023-06-21T11:47:17.073Z,10.07
2023-06-21T11:49:53.716Z,10.40
2023-06-21T11:52:26.862Z,12.88
2023-06-21T11:54:55.100Z,12.68
2023-06-21T11:57:23.336Z,10.10
2023-06-21T11:59:51.535Z,10.52
2023-06-21T12:02:22.751Z,10.90
2023-06-21T12:04:55.316Z,9.90
2023-06-21T12:07:24.210Z,10.35
2023-06-21T12:09:56.252Z,10.65
2023-06-21T12:12:27.324Z,10.65
2023-06-21T12:14:59.106Z,10.00
2023-06-21T12:17:28.623Z,10.52
2023-06-21T12:20:03.870Z,11.23
2023-06-21T12:22:32.043Z,11.75
2023-06-21T12:25:00.344Z,10.52
2023-06-21T12:27:28.601Z,10.82
2023-06-21T12:29:58.320Z,11.23
2023-06-21T12:32:27.980Z,9.93
2023-06-21T12:35:06.413Z,10.27
2023-06-21T12:37:34.716Z,9.88
2023-06-21T12:40:09.427Z,9.75
2023-06-21T12:42:37.750Z,9.57
2023-06-21T12:45:07.142Z,8.57
2023-06-21T12:47:38.335Z,9.23
2023-06-21T12:50:07.426Z,8.68
2023-06-21T12:52:35.588Z,8.93
2023-06-21T12:55:05.428Z,11.80
2023-06-21T12:57:34.167Z,9.25
2023-06-21T13:00:02.697Z,9.30
2023-06-21T13:02:31.399Z,8.95
2023-06-21T13:05:02.431Z,8.95
2023-06-21T13:07:32.141Z,9.20
2023-06-21T13:10:00.387Z,9.30
2023-06-21T13:12:29.741Z,8.60
2023-06-21T13:14:58.005Z,8.38
2023-06-21T13:17:27.307Z,8.52
2023-06-21T13:19:55.461Z,8.32
2023-06-21T13:22:25.329Z,8.25
2023-06-21T13:24:54.618Z,7.90
2023-06-21T13:27:22.942Z,8.35
2023-06-21T13:29:51.213Z,8.45
2023-06-21T13:32:21.116Z,9.02
2023-06-21T13:34:49.858Z,8.80
2023-06-21T13:37:19.330Z,9.15
2023-06-21T13:39:50.032Z,10.10
2023-06-21T13:42:18.142Z,9.32
2023-06-21T13:44:46.415Z,9.07
2023-06-21T13:47:14.707Z,9.18
2023-06-21T13:49:49.548Z,9.50
2023-06-21T13:52:20.370Z,8.25
2023-06-21T13:54:50.103Z,10.10
2023-06-21T13:57:18.626Z,9.55
2023-06-21T13:59:47.445Z,8.60
2023-06-21T14:02:17.066Z,8.45
2023-06-21T14:04:45.818Z,8.73
2023-06-21T14:07:17.111Z,8.57
2023-06-21T14:09:45.920Z,9.13
2023-06-21T14:12:15.507Z,8.90
2023-06-21T14:14:44.697Z,9.05
2023-06-21T14:17:13.195Z,8.27
2023-06-21T14:19:42.088Z,8.10
2023-06-21T14:22:13.097Z,7.95
2023-06-21T14:24:42.062Z,7.85
2023-06-21T14:27:10.992Z,7.53
2023-06-21T14:29:45.592Z,7.88
2023-06-21T14:32:13.840Z,7.10
2023-06-21T14:34:44.688Z,7.22
2023-06-21T14:37:14.515Z,6.93
2023-06-21T14:39:42.840Z,7.50
2023-06-21T14:42:15.317Z,7.20
2023-06-21T14:44:49.208Z,7.10
2023-06-21T14:47:17.505Z,6.40
2023-06-21T14:49:47.834Z,6.38
2023-06-21T14:52:17.162Z,6.90
2023-06-21T14:54:45.802Z,6.65
2023-06-21T14:57:15.409Z,6.50
2023-06-21T14:59:47.131Z,7.57
2023-06-21T15:02:15.405Z,7.00
2023-06-21T15:04:44.138Z,7.65
2023-06-21T15:07:15.297Z,7.78
2023-06-21T15:09:45.042Z,7.30
2023-06-21T15:12:16.134Z,7.75
2023-06-21T15:14:46.688Z,7.20
2023-06-21T15:17:14.871Z,7.65
2023-06-21T15:19:44.140Z,7.82
2023-06-21T15:22:13.250Z,7.63
2023-06-21T15:24:42.379Z,7.78
2023-06-21T15:27:11.084Z,8.23
2023-06-21T15:29:39.284Z,8.75
2023-06-21T15:32:09.698Z,8.85
2023-06-21T15:34:41.558Z,8.98
2023-06-21T15:37:09.753Z,8.85
2023-06-21T15:39:38.100Z,8.57
2023-06-21T15:42:06.876Z,8.18
2023-06-21T15:44:35.172Z,8.50
2023-06-21T15:47:03.376Z,7.65
2023-06-21T15:49:34.159Z,8.32
2023-06-21T15:52:02.895Z,8.68
2023-06-21T15:54:32.109Z,8.40
2023-06-21T15:57:04.114Z,7.55
2023-06-21T15:59:32.288Z,8.50
2023-06-21T16:02:01.220Z,8.32
2023-06-21T16:04:31.172Z,9.05
2023-06-21T16:07:06.427Z,8.45
2023-06-21T16:09:34.940Z,8.77
2023-06-21T16:12:03.082Z,8.93
2023-06-21T16:14:33.170Z,8.32
2023-06-21T16:17:01.617Z,9.02
2023-06-21T16:19:34.910Z,9.70
2023-06-21T16:22:04.605Z,8.88
2023-06-21T16:24:32.824Z,9.55
2023-06-21T16:27:01.073Z,8.30
2023-06-21T16:29:29.295Z,8.68
2023-06-21T16:31:57.512Z,9.55
2023-06-21T16:34:29.351Z,10.27
2023-06-21T16:37:01.962Z,10.27
2023-06-21T16:39:31.920Z,9.95
2023-06-21T16:42:01.400Z,11.32
2023-06-21T16:44:29.829Z,10.80
2023-06-21T16:46:57.956Z,10.43
2023-06-21T16:49:27.370Z,9.73
2023-06-21T16:51:56.956Z,10.15
2023-06-21T16:54:25.499Z,10.15
2023-06-21T16:57:03.819Z,10.25
2023-06-21T16:59:32.775Z,10.23
2023-06-21T17:02:05.978Z,12.15
2023-06-21T17:04:34.174Z,11.70
2023-06-21T17:07:06.288Z,11.23
2023-06-21T17:09:34.530Z,11.13
2023-06-21T17:12:04.241Z,12.07
2023-06-21T17:14:32.392Z,11.98
2023-06-21T17:17:01.535Z,11.50
2023-06-21T17:19:30.115Z,12.75
2023-06-21T17:22:01.797Z,13.15
2023-06-21T17:24:30.415Z,13.38
2023-06-21T17:26:59.192Z,13.35
2023-06-21T17:29:28.890Z,21.70
2023-06-21T17:32:00.216Z,20.63
2023-06-21T17:34:28.915Z,15.07
2023-06-21T17:36:57.501Z,14.30
2023-06-21T17:39:26.008Z,13.95
2023-06-21T17:41:57.653Z,14.38
2023-06-21T17:44:26.101Z,15.88
2023-06-21T17:47:02.186Z,15.15
2023-06-21T17:49:30.984Z,15.88
2023-06-21T17:52:01.565Z,14.30
2023-06-21T17:54:29.924Z,16.23
2023-06-21T17:56:58.228Z,16.05
2023-06-21T17:59:26.706Z,15.52
2023-06-21T18:01:56.333Z,15.40
2023-06-21T18:04:56.731Z,16.02
2023-06-21T18:07:25.192Z,16.38
2023-06-21T18:09:53.939Z,16.55
2023-06-21T18:12:22.356Z,16.48
2023-06-21T18:14:50.552Z,16.35
2023-06-21T18:17:18.823Z,16.80
2023-06-21T18:19:47.049Z,17.05
2023-06-21T18:22:24.009Z,16.63
2023-06-21T18:25:00.339Z,16.98
2023-06-21T18:27:28.662Z,16.45
2023-06-21T18:30:02.346Z,16.63
2023-06-21T18:32:34.498Z,16.67
2023-06-21T18:35:06.603Z,16.00
2023-06-21T18:37:36.252Z,15.63
2023-06-21T18:40:05.834Z,16.42
2023-06-21T18:42:35.282Z,17.10
2023-06-21T18:45:04.228Z,23.48
2023-06-21T18:47:32.340Z,19.48
2023-06-21T18:50:01.001Z,18.95
2023-06-21T18:52:30.295Z,16.45
2023-06-21T18:55:03.841Z,15.65
2023-06-21T18:57:32.116Z,16.42
2023-06-21T19:00:00.205Z,15.60
2023-06-21T19:02:29.463Z,15.77
2023-06-21T19:04:57.911Z,16.73
2023-06-21T19:07:30.444Z,16.67
2023-06-21T19:10:00.196Z,16.02
2023-06-21T19:12:30.257Z,16.67
2023-06-21T19:14:59.981Z,16.67
2023-06-21T19:17:29.245Z,18.40
2023-06-21T19:19:57.548Z,18.77
2023-06-21T19:22:26.258Z,18.02
2023-06-21T19:24:54.642Z,43.83
2023-06-21T19:27:24.265Z,44.78
2023-06-21T19:29:52.698Z,26.60
2023-06-21T19:32:21.247Z,21.40
2023-06-21T19:34:53.322Z,20.50
2023-06-21T19:37:21.539Z,21.02
2023-06-21T19:39:54.060Z,20.10
2023-06-21T19:42:23.754Z,19.95
2023-06-21T19:44:54.405Z,20.85
2023-06-21T19:47:25.977Z,20.30
2023-06-21T19:49:56.195Z,21.70
2023-06-21T19:52:24.849Z,20.60
2023-06-21T19:54:54.277Z,20.52
2023-06-21T19:57:25.358Z,36.35
2023-06-21T19:59:54.286Z,26.55
2023-06-21T20:02:23.040Z,21.88
2023-06-21T20:04:53.837Z,20.33
2023-06-21T20:07:22.029Z,20.60
2023-06-21T20:09:51.313Z,21.27
2023-06-21T20:12:19.495Z,19.92
2023-06-21T20:14:49.528Z,20.48
2023-06-21T20:17:19.364Z,72.95
2023-06-21T20:19:47.721Z,62.47
2023-06-21T20:22:16.812Z,36.05
2023-06-21T20:24:45.357Z,25.65
2023-06-21T20:27:13.691Z,22.98
2023-06-21T20:29:45.500Z,22.58
2023-06-21T20:32:17.305Z,23.58
2023-06-21T20:34:45.607Z,22.50
2023-06-21T20:37:13.764Z,22.27
2023-06-21T20:39:42.358Z,22.50
2023-06-21T20:42:13.388Z,22.42
2023-06-21T20:44:42.354Z,22.65
2023-06-21T20:47:10.529Z,21.77
2023-06-21T20:49:43.305Z,27.25
2023-06-21T20:52:14.327Z,28.80
2023-06-21T20:54:43.366Z,26.83
2023-06-21T20:57:11.697Z,25.42
2023-06-21T20:59:43.464Z,25.65
2023-06-21T21:02:12.022Z,24.73
2023-06-21T21:04:42.764Z,25.13
2023-06-21T21:07:11.163Z,24.63
2023-06-21T21:09:39.368Z,24.35
2023-06-21T21:12:10.206Z,25.27
2023-06-21T21:14:38.408Z,25.48
2023-06-21T21:17:10.428Z,25.15
2023-06-21T21:19:38.783Z,25.38
2023-06-21T21:22:08.512Z,26.95
2023-06-21T21:24:36.699Z,26.38
2023-06-21T21:27:06.403Z,25.20
2023-06-21T21:29:38.553Z,25.05
2023-06-21T21:32:09.319Z,25.58
2023-06-21T21:34:37.666Z,24.77
2023-06-21T21:37:09.667Z,24.98
2023-06-21T21:39:37.936Z,25.25
2023-06-21T21:42:07.613Z,26.15
2023-06-21T21:44:36.400Z,26.70
2023-06-21T21:47:04.877Z,25.58
2023-06-21T21:49:35.996Z,25.48
2023-06-21T21:52:05.399Z,26.75
2023-06-21T21:54:35.065Z,25.55
2023-06-21T21:57:03.224Z,25.50
2023-06-21T21:59:32.087Z,24.85
2023-06-21T22:02:00.228Z,25.05
2023-06-21T22:04:29.179Z,26.30
2023-06-21T22:06:57.896Z,27.33
2023-06-21T22:09:26.606Z,27.45
2023-06-21T22:11:58.448Z,27.00
2023-06-21T22:14:30.399Z,28.17
2023-06-21T22:16:58.626Z,27.95
2023-06-21T22:19:30.381Z,28.52
2023-06-21T22:22:02.583Z,30.48
2023-06-21T22:24:33.254Z,28.70
2023-06-21T22:27:03.562Z,28.58
2023-06-21T22:29:33.437Z,28.38
2023-06-21T22:32:01.816Z,28.50
2023-06-21T22:34:32.970Z,28.95
2023-06-21T22:37:07.475Z,28.15
2023-06-21T22:39:35.664Z,26.75
2023-06-21T22:42:06.460Z,30.10
2023-06-21T22:44:35.078Z,29.00
2023-06-21T22:47:03.212Z,28.55
2023-06-21T22:49:36.445Z,29.50
2023-06-21T22:52:06.091Z,29.05
2023-06-21T22:54:42.562Z,29.42
2023-06-21T22:57:12.181Z,29.50
2023-06-21T22:59:42.483Z,30.15
2023-06-21T23:02:10.672Z,28.80
2023-06-21T23:04:39.060Z,28.80
2023-06-21T23:07:10.402Z,28.50
2023-06-21T23:09:39.418Z,28.65
2023-06-21T23:12:08.404Z,29.23
2023-06-21T23:14:38.766Z,28.48
2023-06-21T23:17:09.356Z,26.20
2023-06-21T23:19:40.282Z,26.80
2023-06-21T23:22:09.494Z,27.05
2023-06-21T23:24:37.827Z,26.95
2023-06-21T23:27:09.944Z,27.13
2023-06-21T23:29:42.485Z,25.77
2023-06-21T23:32:14.324Z,26.23
2023-06-21T23:34:46.439Z,26.60
2023-06-21T23:37:17.525Z,25.73
2023-06-21T23:39:54.996Z,26.23
2023-06-21T23:42:25.469Z,25.67
2023-06-21T23:44:58.775Z,26.58
2023-06-21T23:47:30.610Z,26.42
2023-06-21T23:49:58.763Z,25.45
2023-06-21T23:52:28.432Z,25.90
2023-06-21T23:54:56.732Z,25.60
2023-06-21T23:57:26.447Z,25.85
2023-06-21T23:59:54.954Z,25.40
